Airfield :
LOGIN :

Register | Disclaimer

   EN    FR    IT 

 










Legend :    VFR   Marginal VFR   IFR   Intensive IFR   Very Intensive IFR
Visi :
Ceiling :
>= 8 km
>= 3000ft
5 to 8 km
1000 to 3000 ft
1500m to 5 km
500 to 1000 ft
800 to 1500m
200 to 500 ft
< 800m
< 200 ft
Symbols :   Thunderstorms  Fog  Heavy snow  Heavy precipitations  Wind > 20 kt
SIGMETs :     Misc.  Thunderstorms  Icing  Turbulence  Mountain Waves  Volcanic Ashes






- Airport Elevation : 355 ft
- IATA code : VBS


LIPO - Montichiari - Brescia

CURRENT METAR :
  • 162050Z 12011KT 6000 SCT050 10/07 Q1011

EXPIRED METARs :
  • 161950Z 14005KT 5000 BR SCT040 09/08 Q1012
  • 161850Z 25003KT 4000 BR SCT050 09/09 Q1012
  • 161750Z 33005KT 4000 BR SCT040 08/08 Q1012

TAF TAF LIPO
Valid from the 16 at 18:00 until the 17 at 18:00 UTC


161700Z 1618/1718 VRB05KT 5000 BR SCT015 OVC050
BECMG 1621/1623 RA



MET'MAP, your aeronautical weather chart ! - Copyright ORBIFLY December 2007 - Disclaimer

ORBIFLY MET'MAP TEAM :

Programming & Development : Alexandra Zaïnal
Concept & Development : Baudouin d'Aumeries
Co-Development & Prog : Marc-Olivier Méhu
Technical & hardware support : Manuel Goepfert

Contact : metmap@orbifly.com




SOURCES & CREDITS :

   NOAA